Time;durP1;ratioP1;P1;durP2;ratioP2;P2;SDS_P1;SDS_P2;PMS_P1;PMS_P2;Temp;Humidity;BMP_temperature;BMP_pressure;BME280_temperature;BME280_humidity;BME280_pressure;Samples;Min_cycle;Max_cycle;Signal;HPM_P1;HPM_P2
2024/01/27 00:02:03;;;;;;;11.30;0.80;;;;;;;4.81;83.70;100903.86;108182;1269;22551;-78
2024/01/27 00:04:54;;;;;;;14.10;1.10;;;;;;;4.81;83.40;100911.06;108031;1269;24204;-76
2024/01/27 00:07:46;;;;;;;15.50;1.00;;;;;;;4.81;83.42;100910.58;108139;1269;23263;-76
2024/01/27 00:10:37;;;;;;;8.50;0.90;;;;;;;4.82;83.03;100921.80;107905;1271;24249;-75
2024/01/27 00:13:29;;;;;;;11.40;1.10;;;;;;;4.82;83.21;100923.90;108011;1263;22696;-77
2024/01/27 00:16:20;;;;;;;18.20;1.30;;;;;;;4.83;83.05;100924.77;108032;1262;22602;-76
2024/01/27 00:19:11;;;;;;;12.20;1.70;;;;;;;4.85;83.04;100929.48;108322;1269;22904;-75
2024/01/27 00:22:03;;;;;;;6.90;0.90;;;;;;;4.86;83.04;100934.75;108066;1269;24333;-76
2024/01/27 00:24:54;;;;;;;15.20;0.80;;;;;;;4.87;83.05;100939.95;108111;1269;22524;-75
2024/01/27 00:27:45;;;;;;;11.70;0.80;;;;;;;4.88;82.28;100948.95;108302;1267;23244;-75
2024/01/27 00:34:48;;;;;;;14.30;0.90;;;;;;;4.90;82.05;100956.55;108453;1269;22650;-77
2024/01/27 00:37:40;;;;;;;10.30;0.80;;;;;;;4.91;82.46;100955.52;108331;1269;25224;-75
2024/01/27 00:40:31;;;;;;;14.20;1.50;;;;;;;4.92;82.12;100964.38;108342;1269;22528;-75
2024/01/27 00:43:22;;;;;;;8.10;1.00;;;;;;;4.92;82.09;100963.80;108300;1269;25246;-75
2024/01/27 00:46:13;;;;;;;11.90;1.00;;;;;;;4.93;81.72;100965.68;108122;1267;25275;-75
2024/01/27 00:49:06;;;;;;;6.90;1.20;;;;;;;4.94;81.48;100969.08;108384;1269;24344;-75
2024/01/27 00:51:58;;;;;;;12.80;0.90;;;;;;;4.93;81.49;100961.89;108247;1260;25344;-75
2024/01/27 00:54:49;;;;;;;10.70;1.10;;;;;;;4.94;81.33;100966.70;108251;1266;23068;-76
2024/01/27 00:57:40;;;;;;;7.90;1.20;;;;;;;4.93;80.92;100967.02;108068;1269;24390;-75
2024/01/27 01:00:31;;;;;;;11.30;0.90;;;;;;;4.94;80.28;100967.33;108192;1269;22565;-74
2024/01/27 01:03:24;;;;;;;13.70;0.80;;;;;;;4.96;80.48;100964.94;108323;1267;22539;-78
2024/01/27 01:06:16;;;;;;;9.20;0.90;;;;;;;4.94;80.72;100965.42;108232;1263;25332;-75
2024/01/27 01:09:08;;;;;;;13.30;1.70;;;;;;;4.93;80.35;100955.81;108314;1269;23105;-75
2024/01/27 01:11:59;;;;;;;10.60;1.00;;;;;;;4.91;80.31;100957.65;108586;1269;24077;-75
2024/01/27 01:14:51;;;;;;;14.50;0.80;;;;;;;4.91;80.28;100960.59;108287;1269;24982;-74
2024/01/27 01:17:42;;;;;;;15.20;1.60;;;;;;;4.90;80.22;100960.68;108101;1263;22543;-75
2024/01/27 01:20:34;;;;;;;13.80;1.10;;;;;;;4.90;80.36;100952.30;108146;1266;22556;-78
2024/01/27 01:23:25;;;;;;;12.60;1.10;;;;;;;4.90;80.24;100960.13;108322;1269;22516;-75
2024/01/27 01:26:17;;;;;;;11.20;1.40;;;;;;;4.89;80.00;100973.02;108066;1269;24078;-75
2024/01/27 01:29:08;;;;;;;17.40;1.10;;;;;;;4.90;79.98;100980.84;108025;1270;25439;-76
2024/01/27 01:32:01;;;;;;;16.50;1.20;;;;;;;4.89;79.66;100983.63;107991;1271;24064;-81
2024/01/27 01:34:53;;;;;;;11.30;0.90;;;;;;;4.90;78.65;100988.27;108045;1267;25192;-77
2024/01/27 01:37:44;;;;;;;17.00;1.40;;;;;;;4.90;79.23;100981.64;108053;1271;22652;-76
2024/01/27 01:40:35;;;;;;;9.10;1.30;;;;;;;4.88;78.99;100977.31;108006;1271;22616;-75
2024/01/27 01:43:27;;;;;;;13.10;1.50;;;;;;;4.87;79.08;100981.14;108177;1270;25281;-74
2024/01/27 01:46:17;;;;;;;18.30;1.00;;;;;;;4.86;79.18;100979.88;108102;1264;24415;-75
2024/01/27 01:49:06;;;;;;;;;;;;;;;4.84;79.11;100981.51;108172;1270;24206;-75
2024/01/27 01:51:58;;;;;;;8.40;0.90;;;;;;;4.81;79.13;100976.73;108162;1267;23698;-77
2024/01/27 01:54:51;;;;;;;12.50;1.00;;;;;;;4.79;79.20;100987.84;108057;1264;23649;-75
2024/01/27 01:57:43;;;;;;;9.30;1.00;;;;;;;4.77;78.81;100985.25;111046;1269;22165;-75
2024/01/27 02:00:34;;;;;;;6.40;0.80;;;;;;;4.74;79.03;100979.93;109153;1267;25723;-75
2024/01/27 02:03:25;;;;;;;12.70;0.80;;;;;;;4.72;78.79;100977.29;108260;1270;24327;-76
2024/01/27 02:06:14;;;;;;;;;;;;;;;4.71;78.67;100974.15;108205;1270;22639;-76
2024/01/27 02:09:06;;;;;;;11.60;0.90;;;;;;;4.67;78.62;100983.84;108195;1267;22545;-74
2024/01/27 02:11:57;;;;;;;10.60;1.40;;;;;;;4.63;78.61;100976.41;108202;1267;25330;-74
2024/01/27 02:14:48;;;;;;;8.20;0.80;;;;;;;4.59;78.67;100981.85;108262;1267;23065;-76
2024/01/27 02:17:39;;;;;;;16.50;1.10;;;;;;;4.56;78.42;100986.89;108049;1260;25383;-74
2024/01/27 02:20:31;;;;;;;13.60;1.20;;;;;;;4.54;78.36;101002.88;108021;1269;22973;-75
2024/01/27 02:23:22;;;;;;;14.70;1.10;;;;;;;4.52;78.11;100996.43;108103;1264;25356;-77
2024/01/27 02:26:14;;;;;;;11.80;0.80;;;;;;;4.51;77.59;100994.92;108028;1271;24351;-74
2024/01/27 02:29:05;;;;;;;13.20;0.90;;;;;;;4.51;77.40;100999.47;108072;1269;23902;-75
2024/01/27 02:31:57;;;;;;;14.40;1.10;;;;;;;4.50;77.84;101003.34;107791;1271;22658;-75
2024/01/27 02:34:48;;;;;;;10.30;1.40;;;;;;;4.50;77.68;101005.08;108254;1265;22559;-76
2024/01/27 02:37:39;;;;;;;11.70;1.00;;;;;;;4.48;77.57;101004.39;108041;1271;23527;-74
2024/01/27 02:40:31;;;;;;;12.60;0.90;;;;;;;4.46;78.01;101004.02;108149;1270;23015;-74
2024/01/27 02:43:22;;;;;;;12.40;1.20;;;;;;;4.43;77.76;101006.13;107999;1270;22654;-75
2024/01/27 02:46:15;;;;;;;12.40;1.60;;;;;;;4.41;77.34;101009.23;108038;1271;24231;-73
2024/01/27 02:49:06;;;;;;;14.90;1.30;;;;;;;4.40;77.46;101010.77;107832;1270;22587;-74
2024/01/27 02:51:57;;;;;;;12.20;1.10;;;;;;;4.37;77.57;101015.86;107853;1264;25401;-75
2024/01/27 02:54:48;;;;;;;11.30;1.00;;;;;;;4.35;77.53;101017.08;107893;1271;22591;-73
2024/01/27 02:57:41;;;;;;;18.10;1.20;;;;;;;4.34;77.62;101027.36;107831;1270;24327;-74
2024/01/27 03:00:32;;;;;;;16.20;1.40;;;;;;;4.33;77.45;101035.27;107811;1269;23919;-73
2024/01/27 03:03:23;;;;;;;13.70;1.00;;;;;;;4.34;77.53;101040.17;107935;1270;24383;-73
2024/01/27 03:06:14;;;;;;;15.60;1.00;;;;;;;4.35;76.60;101053.80;107974;1270;22687;-73
2024/01/27 03:09:06;;;;;;;9.40;1.00;;;;;;;4.37;76.78;101048.09;107976;1260;22667;-76
2024/01/27 03:11:57;;;;;;;14.00;0.90;;;;;;;4.38;76.73;101053.61;108073;1270;22661;-74
2024/01/27 03:14:49;;;;;;;14.20;0.70;;;;;;;4.39;76.39;101046.08;108046;1265;22701;-75
2024/01/27 03:17:40;;;;;;;15.30;0.90;;;;;;;4.40;76.42;101048.92;108090;1264;22650;-74
2024/01/27 03:20:32;;;;;;;8.30;0.90;;;;;;;4.41;75.89;101048.27;107904;1265;22694;-74
2024/01/27 03:23:23;;;;;;;12.60;1.00;;;;;;;4.42;76.02;101044.85;108115;1269;22658;-75
2024/01/27 03:26:14;;;;;;;13.90;1.00;;;;;;;4.43;76.28;101043.36;107658;1271;23914;-74
2024/01/27 03:29:05;;;;;;;14.20;1.70;;;;;;;4.42;75.66;101046.91;107895;1269;25403;-78
2024/01/27 03:31:57;;;;;;;15.60;1.40;;;;;;;4.44;75.45;101047.13;107983;1270;22821;-75
2024/01/27 03:34:48;;;;;;;11.90;1.00;;;;;;;4.44;75.57;101047.67;107926;1270;22732;-78
2024/01/27 03:37:39;;;;;;;14.20;1.20;;;;;;;4.45;75.31;101052.09;107953;1270;23950;-77
2024/01/27 03:40:30;;;;;;;19.60;1.70;;;;;;;4.46;75.13;101059.49;108045;1269;24343;-74
2024/01/27 03:43:21;;;;;;;12.90;1.70;;;;;;;4.46;75.22;101063.52;107988;1262;26045;-74
2024/01/27 03:50:11;;;;;;;12.20;1.00;;;;;;;4.45;74.50;101074.42;107506;1273;22692;-81
2024/01/27 03:53:02;;;;;;;11.90;1.00;;;;;;;4.46;74.27;101075.30;108314;1275;25368;-74
2024/01/27 03:55:53;;;;;;;11.90;0.90;;;;;;;4.46;74.06;101079.32;107901;1270;22523;-73
2024/01/27 03:58:44;;;;;;;10.90;0.70;;;;;;;4.47;74.00;101080.02;108000;1270;22523;-73
2024/01/27 04:01:35;;;;;;;18.30;1.80;;;;;;;4.47;74.13;101081.42;107982;1270;22568;-74
2024/01/27 04:04:26;;;;;;;14.10;1.10;;;;;;;4.47;74.23;101086.26;108349;1269;24364;-75
2024/01/27 04:07:17;;;;;;;8.70;1.10;;;;;;;4.46;73.92;101092.52;108006;1268;22655;-74
2024/01/27 04:10:10;;;;;;;17.20;1.00;;;;;;;4.46;73.77;101095.52;108114;1269;22523;-74
2024/01/27 04:13:01;;;;;;;16.80;1.90;;;;;;;4.45;73.48;101092.13;108329;1269;22678;-74
2024/01/27 04:15:53;;;;;;;13.80;1.00;;;;;;;4.44;73.57;101097.05;108219;1269;23082;-74
2024/01/27 04:18:45;;;;;;;15.20;1.00;;;;;;;4.43;72.91;101093.27;108231;1269;25362;-76
2024/01/27 04:21:36;;;;;;;15.80;1.10;;;;;;;4.42;73.03;101092.17;108206;1269;22555;-77
2024/01/27 04:24:27;;;;;;;19.70;1.20;;;;;;;4.40;73.23;101096.70;108207;1265;22596;-74
2024/01/27 04:27:18;;;;;;;8.50;0.70;;;;;;;4.39;73.30;101091.02;108215;1269;24364;-75
2024/01/27 04:30:12;;;;;;;11.60;1.00;;;;;;;4.36;72.64;101091.16;108321;1269;24355;-75
2024/01/27 04:33:03;;;;;;;9.90;1.00;;;;;;;4.34;72.58;101092.29;108534;1269;24365;-74
2024/01/27 04:35:55;;;;;;;16.60;1.20;;;;;;;4.31;72.85;101095.41;108087;1269;22568;-74
2024/01/27 04:38:48;;;;;;;10.80;1.70;;;;;;;4.27;72.93;101094.27;108355;1269;22529;-74
2024/01/27 04:41:44;;;;;;;12.50;0.90;;;;;;;4.24;72.79;101106.33;108117;1269;25237;-74
2024/01/27 04:44:36;;;;;;;21.10;1.60;;;;;;;4.21;72.97;101106.29;108281;1269;24367;-74
2024/01/27 04:47:27;;;;;;;11.60;1.00;;;;;;;4.19;72.78;101106.55;108403;1269;22541;-75
2024/01/27 04:50:19;;;;;;;15.80;1.00;;;;;;;4.19;72.83;101114.12;108250;1269;25141;-78
2024/01/27 04:53:10;;;;;;;16.70;1.00;;;;;;;4.18;73.22;101108.83;108017;1249;24228;-74
2024/01/27 04:56:01;;;;;;;13.10;1.30;;;;;;;4.18;72.97;101103.87;107879;1269;24327;-74
2024/01/27 04:58:52;;;;;;;10.70;0.80;;;;;;;4.18;72.78;101106.48;107908;1269;22615;-75
2024/01/27 05:01:46;;;;;;;7.40;1.10;;;;;;;4.18;72.76;101104.83;107731;1271;22578;-76
2024/01/27 05:04:39;;;;;;;16.80;1.40;;;;;;;4.17;73.00;101097.73;107830;1271;23143;-74
2024/01/27 05:07:31;;;;;;;13.80;1.00;;;;;;;4.17;72.94;101106.00;108047;1269;25344;-74
2024/01/27 05:10:25;;;;;;;11.90;0.80;;;;;;;4.18;72.61;101112.48;107771;1265;24223;-74
2024/01/27 05:13:16;;;;;;;21.50;1.70;;;;;;;4.18;72.56;101110.58;107879;1269;24359;-74
2024/01/27 05:16:08;;;;;;;13.50;1.10;;;;;;;4.18;72.72;101119.27;107759;1268;25399;-74
2024/01/27 05:18:59;;;;;;;16.60;1.70;;;;;;;4.18;72.71;101119.60;107853;1270;23487;-74
2024/01/27 05:21:49;;;;;;;13.90;1.20;;;;;;;4.18;72.60;101120.06;107813;1249;22534;-73
2024/01/27 05:24:41;;;;;;;14.80;1.00;;;;;;;4.18;72.65;101128.04;108048;1269;22757;-76
2024/01/27 05:27:32;;;;;;;8.30;0.80;;;;;;;4.17;72.70;101125.27;108045;1267;23042;-74
2024/01/27 05:30:24;;;;;;;12.20;1.00;;;;;;;4.16;72.68;101127.27;108157;1269;24397;-74
2024/01/27 05:37:54;;;;;;;11.00;0.90;;;;;;;4.13;73.08;101129.04;107658;1271;22669;-74
2024/01/27 05:40:46;;;;;;;9.20;1.20;;;;;;;4.11;73.07;101136.02;107909;1270;24213;-75
2024/01/27 05:43:37;;;;;;;10.80;1.30;;;;;;;4.08;73.39;101136.77;107842;1270;23094;-76
2024/01/27 05:46:29;;;;;;;15.10;1.70;;;;;;;4.05;73.56;101136.64;108027;1265;22524;-75
2024/01/27 05:49:21;;;;;;;14.50;1.20;;;;;;;4.02;73.81;101136.45;108977;1257;22575;-75
2024/01/27 05:52:12;;;;;;;11.40;0.80;;;;;;;4.00;73.84;101137.81;109602;1265;22517;-77
2024/01/27 05:55:06;;;;;;;10.00;1.20;;;;;;;3.98;73.86;101142.02;107935;1269;22548;-74
2024/01/27 05:57:57;;;;;;;13.00;1.00;;;;;;;3.95;73.71;101145.59;107836;1265;22695;-74
2024/01/27 06:00:48;;;;;;;10.00;1.10;;;;;;;3.95;73.75;101147.33;107851;1267;22537;-74
2024/01/27 06:03:41;;;;;;;15.10;1.70;;;;;;;3.93;73.87;101148.92;108149;1266;26609;-74
2024/01/27 06:06:32;;;;;;;16.70;1.40;;;;;;;3.90;73.99;101151.96;107976;1263;22640;-74
2024/01/27 06:09:23;;;;;;;18.50;1.40;;;;;;;3.88;74.16;101160.27;107895;1254;25471;-75
2024/01/27 06:12:15;;;;;;;14.30;1.20;;;;;;;3.87;74.26;101168.02;108073;1263;22768;-74
2024/01/27 06:15:08;;;;;;;18.10;1.40;;;;;;;3.84;74.30;101166.80;107962;1260;22595;-75
2024/01/27 06:18:00;;;;;;;9.70;1.00;;;;;;;3.81;74.39;101164.54;107817;1263;24355;-74
2024/01/27 06:20:52;;;;;;;16.60;1.20;;;;;;;3.79;74.36;101185.08;107736;1269;24316;-75
2024/01/27 06:23:42;;;;;;;17.40;1.90;;;;;;;3.77;74.48;101189.59;108087;1265;24154;-74
2024/01/27 06:26:34;;;;;;;11.60;0.90;;;;;;;3.76;74.61;101186.53;108145;1269;22527;-77
2024/01/27 06:29:26;;;;;;;16.60;1.10;;;;;;;3.74;74.67;101194.38;107970;1263;22521;-79
2024/01/27 06:32:21;;;;;;;16.20;1.70;;;;;;;3.73;74.71;101208.65;108782;1262;22543;-79
2024/01/27 06:35:17;;;;;;;14.90;1.20;;;;;;;3.73;74.91;101210.86;108905;1262;24198;-80
2024/01/27 06:38:08;;;;;;;20.60;1.50;;;;;;;3.73;74.84;101207.78;108686;1269;22533;-80
2024/01/27 06:41:00;;;;;;;16.40;1.20;;;;;;;3.72;74.83;101200.30;108679;1265;22632;-77
2024/01/27 06:43:51;;;;;;;15.70;1.50;;;;;;;3.71;75.03;101186.81;109631;1268;24008;-77
2024/01/27 06:46:44;;;;;;;11.30;0.90;;;;;;;3.71;74.99;101187.52;107642;1270;25398;-77
2024/01/27 06:49:35;;;;;;;14.60;1.00;;;;;;;3.70;75.14;101187.54;111218;1268;22957;-77
2024/01/27 06:52:26;;;;;;;12.50;1.30;;;;;;;3.69;74.96;101179.34;109831;1268;22581;-76
2024/01/27 06:55:17;;;;;;;15.10;2.00;;;;;;;3.68;75.21;101186.85;107823;1267;25489;-77
2024/01/27 06:58:09;;;;;;;10.50;1.30;;;;;;;3.67;75.29;101180.61;108050;1262;22546;-77
2024/01/27 07:01:00;;;;;;;15.40;1.70;;;;;;;3.66;75.40;101190.55;108143;1262;22578;-82
2024/01/27 07:03:51;;;;;;;15.60;1.20;;;;;;;3.65;75.49;101189.79;108027;1263;22619;-77
2024/01/27 07:06:43;;;;;;;17.20;2.00;;;;;;;3.64;75.72;101196.41;107922;1266;23869;-76
2024/01/27 07:09:34;;;;;;;17.20;1.90;;;;;;;3.64;75.73;101188.95;107936;1266;22547;-78
2024/01/27 07:12:26;;;;;;;19.30;1.40;;;;;;;3.64;75.74;101185.05;107911;1268;23145;-78
2024/01/27 07:15:17;;;;;;;14.70;2.30;;;;;;;3.65;75.96;101185.30;111201;1262;22212;-77
2024/01/27 07:18:10;;;;;;;17.10;1.90;;;;;;;3.65;75.92;101184.50;111244;1269;22247;-78
2024/01/27 07:21:04;;;;;;;12.00;1.30;;;;;;;3.67;76.07;101185.66;111277;1266;23227;-78
2024/01/27 07:23:54;;;;;;;17.20;1.10;;;;;;;3.68;76.13;101199.87;111337;1267;22344;-77
2024/01/27 07:26:46;;;;;;;18.60;1.40;;;;;;;3.70;76.15;101200.02;111164;1267;22248;-78
2024/01/27 07:29:37;;;;;;;17.80;2.20;;;;;;;3.73;76.08;101199.73;111224;1264;22130;-80
2024/01/27 07:32:28;;;;;;;22.20;2.30;;;;;;;3.75;76.11;101206.03;111222;1262;22215;-78
2024/01/27 07:35:19;;;;;;;14.30;1.00;;;;;;;3.76;76.02;101198.98;111422;1257;22336;-78
2024/01/27 07:38:12;;;;;;;13.20;1.00;;;;;;;3.78;75.86;101196.28;111200;1268;22286;-78
2024/01/27 07:41:03;;;;;;;17.80;2.10;;;;;;;3.81;76.01;101199.34;111054;1270;22195;-76
2024/01/27 07:43:55;;;;;;;17.10;1.20;;;;;;;3.83;75.83;101204.92;110959;1270;22242;-76
2024/01/27 07:46:46;;;;;;;21.20;2.00;;;;;;;3.86;75.83;101217.91;111219;1269;22301;-77
2024/01/27 07:49:37;;;;;;;16.80;1.10;;;;;;;3.88;75.77;101225.94;111180;1270;22241;-75
2024/01/27 07:52:29;;;;;;;9.30;1.10;;;;;;;3.90;75.63;101238.55;110966;1268;22507;-77
2024/01/27 07:55:19;;;;;;;17.00;1.70;;;;;;;3.92;75.41;101241.92;111252;1268;22179;-76
2024/01/27 07:58:10;;;;;;;16.20;1.00;;;;;;;3.94;75.41;101242.92;111237;1269;22201;-75
2024/01/27 08:01:02;;;;;;;9.30;1.00;;;;;;;3.97;75.47;101232.41;111205;1268;22117;-77
2024/01/27 08:03:52;;;;;;;14.40;1.10;;;;;;;3.99;75.26;101233.34;111360;1268;22196;-75
2024/01/27 08:11:31;;;;;;;20.20;1.50;;;;;;;4.03;75.18;101243.62;110667;1272;23223;-75
2024/01/27 08:14:21;;;;;;;;;;;;;;;4.05;75.15;101242.27;111065;1262;22510;-76
2024/01/27 08:17:11;;;;;;;17.80;1.80;;;;;;;4.06;74.99;101237.69;111136;1262;22301;-76
2024/01/27 08:20:02;;;;;;;18.00;1.20;;;;;;;4.07;75.28;101243.27;111188;1270;22334;-76
2024/01/27 08:22:53;;;;;;;17.00;1.90;;;;;;;4.09;75.23;101229.52;111143;1269;23037;-75
2024/01/27 08:25:47;;;;;;;15.70;1.20;;;;;;;4.10;75.21;101230.21;111170;1251;22268;-77
2024/01/27 08:28:37;;;;;;;11.20;1.10;;;;;;;4.12;75.08;101241.88;111188;1269;22202;-75
2024/01/27 08:31:28;;;;;;;17.70;2.50;;;;;;;4.14;75.16;101251.73;111179;1267;22169;-76
2024/01/27 08:34:20;;;;;;;12.80;1.90;;;;;;;4.16;75.24;101258.42;111380;1262;22765;-75
2024/01/27 08:37:19;;;;;;;12.00;1.00;;;;;;;4.18;74.97;101271.27;111147;1266;22177;-75
2024/01/27 08:40:12;;;;;;;18.10;1.50;;;;;;;4.20;74.91;101273.39;111145;1269;22436;-77
2024/01/27 08:43:03;;;;;;;23.40;1.20;;;;;;;4.22;74.91;101287.42;111103;1267;92503;-76
2024/01/27 08:45:56;;;;;;;12.60;1.30;;;;;;;4.22;75.07;101288.12;109452;1263;22639;-77
2024/01/27 08:48:47;;;;;;;18.70;1.20;;;;;;;4.23;74.98;101290.80;108070;1262;22616;-77
2024/01/27 08:51:38;;;;;;;13.90;1.00;;;;;;;4.25;74.76;101298.84;108146;1268;25459;-76
2024/01/27 08:54:30;;;;;;;16.80;2.00;;;;;;;4.27;74.77;101291.00;107963;1263;22550;-78
2024/01/27 08:57:21;;;;;;;11.70;0.90;;;;;;;4.29;74.94;101282.36;107938;1265;22821;-77
2024/01/27 09:00:16;;;;;;;18.80;1.60;;;;;;;4.31;74.69;101281.48;107876;1246;22525;-78
2024/01/27 09:03:07;;;;;;;18.80;1.30;;;;;;;4.33;74.85;101270.33;111322;1263;23036;-78
2024/01/27 09:05:59;;;;;;;14.40;1.70;;;;;;;4.34;74.52;101277.34;108824;1265;22528;-77
2024/01/27 09:08:50;;;;;;;18.50;1.40;;;;;;;4.36;74.25;101275.35;108348;1266;22554;-79
2024/01/27 09:11:41;;;;;;;23.30;2.10;;;;;;;4.36;74.16;101267.51;108754;1265;22681;-78
2024/01/27 09:14:33;;;;;;;17.50;1.30;;;;;;;4.39;74.41;101270.95;109222;1262;22982;-78
2024/01/27 09:17:24;;;;;;;17.80;1.10;;;;;;;4.42;74.44;101280.64;109094;1263;22527;-77
2024/01/27 09:20:16;;;;;;;9.20;0.90;;;;;;;4.45;74.39;101295.63;109142;1262;23028;-77
2024/01/27 09:23:07;;;;;;;13.80;1.00;;;;;;;4.47;74.27;101296.38;108725;1246;22782;-79
2024/01/27 09:25:58;;;;;;;18.00;1.10;;;;;;;4.50;74.24;101296.98;108709;1270;22538;-78
2024/01/27 09:28:54;;;;;;;14.50;1.30;;;;;;;4.52;74.06;101307.31;108775;1266;22680;-78
2024/01/27 09:31:45;;;;;;;21.10;2.30;;;;;;;4.54;73.77;101314.80;108651;1269;25387;-77
2024/01/27 09:34:36;;;;;;;17.60;2.10;;;;;;;4.55;73.88;101312.81;108703;1270;23015;-78
2024/01/27 09:37:27;;;;;;;13.90;1.40;;;;;;;4.55;73.83;101323.62;109071;1268;25319;-78
2024/01/27 09:40:20;;;;;;;16.70;2.10;;;;;;;4.57;74.03;101327.34;109131;1266;24185;-79
2024/01/27 09:43:14;;;;;;;13.10;1.30;;;;;;;4.58;73.97;101326.38;109158;1266;23473;-77
2024/01/27 09:46:06;;;;;;;16.60;1.80;;;;;;;4.59;73.71;101336.70;111180;1269;22160;-78
2024/01/27 09:48:57;;;;;;;13.10;1.00;;;;;;;4.61;73.70;101336.84;111362;1268;22635;-78
2024/01/27 09:51:48;;;;;;;16.40;1.10;;;;;;;4.64;73.63;101355.86;111405;1260;22069;-78
2024/01/27 09:54:41;;;;;;;17.10;1.20;;;;;;;4.66;73.33;101357.48;111389;1265;23158;-79
2024/01/27 10:01:51;;;;;;;17.90;1.30;;;;;;;4.72;73.43;101358.91;111075;1268;25526;-76
2024/01/27 10:04:45;;;;;;;22.90;2.20;;;;;;;4.74;73.53;101351.23;108024;1259;22530;-75
2024/01/27 10:12:23;;;;;;;17.60;1.70;;;;;;;4.80;73.42;101361.28;107518;1265;22524;-75
2024/01/27 10:15:26;;;;;;;20.80;1.30;;;;;;;4.82;73.38;101359.30;107722;1266;22561;-75
2024/01/27 10:18:18;;;;;;;13.50;1.30;;;;;;;4.83;73.26;101357.46;107914;1268;22542;-77
2024/01/27 10:21:18;;;;;;;19.20;1.30;;;;;;;4.87;73.34;101357.64;107758;1264;22546;-75
2024/01/27 10:24:09;;;;;;;15.30;1.50;;;;;;;4.95;73.17;101356.12;110355;1266;22975;-76
2024/01/27 10:31:53;;;;;;;9.80;1.40;;;;;;;4.98;72.85;101344.16;107060;1276;22552;-76
2024/01/27 10:34:45;;;;;;;19.40;1.20;;;;;;;5.00;72.73;101345.95;107178;1275;22637;-78
2024/01/27 10:38:08;;;;;;;11.80;1.20;;;;;;;5.05;72.80;101361.46;107506;1271;22823;-77
2024/01/27 10:41:50;;;;;;;13.50;1.30;;;;;;;5.13;72.61;101355.04;107697;1270;22654;-78
2024/01/27 10:44:44;;;;;;;14.50;1.10;;;;;;;5.18;72.64;101347.53;107869;1267;24375;-77
2024/01/27 10:47:35;;;;;;;16.60;1.30;;;;;;;5.20;72.56;101346.39;107680;1270;25322;-76
2024/01/27 10:50:29;;;;;;;16.30;1.20;;;;;;;5.20;72.48;101354.70;107879;1270;23105;-76
2024/01/27 10:53:27;;;;;;;16.70;1.70;;;;;;;5.19;72.32;101363.89;108230;1269;23132;-76
2024/01/27 10:56:19;;;;;;;13.20;1.30;;;;;;;5.18;72.26;101367.70;108136;1264;25492;-77
2024/01/27 10:59:12;;;;;;;15.60;1.70;;;;;;;5.17;72.34;101330.31;109580;1265;22626;-76
2024/01/27 11:02:06;;;;;;;14.30;1.40;;;;;;;5.18;72.30;101328.95;108063;1270;22734;-77
2024/01/27 11:04:58;;;;;;;17.70;1.30;;;;;;;5.21;72.35;101338.48;108096;1270;22696;-77
2024/01/27 11:07:51;;;;;;;7.40;1.20;;;;;;;5.25;72.43;101349.02;108411;1269;24361;-76
2024/01/27 11:10:43;;;;;;;13.70;1.50;;;;;;;5.28;72.43;101354.75;107858;1271;22659;-77
2024/01/27 11:13:35;;;;;;;13.70;1.10;;;;;;;5.30;72.41;101341.83;111113;1269;22405;-77
2024/01/27 11:16:27;;;;;;;18.10;1.70;;;;;;;5.33;72.30;101348.76;111065;1266;22114;-78
2024/01/27 11:19:20;;;;;;;9.80;1.30;;;;;;;5.34;72.15;101351.11;111201;1267;22163;-77
2024/01/27 11:22:24;;;;;;;21.80;1.60;;;;;;;5.35;72.47;101348.81;111157;1266;22249;-76
2024/01/27 11:25:21;;;;;;;12.30;0.90;;;;;;;5.37;71.89;101363.57;110993;1263;22986;-79
2024/01/27 11:28:17;;;;;;;9.90;1.20;;;;;;;5.41;72.30;101370.25;111039;1265;23070;-80
2024/01/27 11:31:08;;;;;;;16.00;1.40;;;;;;;5.43;72.28;101373.14;111044;1263;22248;-78
2024/01/27 11:34:01;;;;;;;11.20;1.50;;;;;;;5.47;72.11;101380.84;111069;1262;22279;-82
2024/01/27 11:36:52;;;;;;;16.90;1.90;;;;;;;5.49;72.43;101387.92;111155;1266;22230;-77
2024/01/27 11:39:43;;;;;;;18.30;1.80;;;;;;;5.53;72.16;101391.99;111223;1260;22398;-78
2024/01/27 11:42:34;;;;;;;19.70;1.30;;;;;;;5.56;71.70;101394.41;111270;1257;22105;-77
2024/01/27 11:45:25;;;;;;;11.50;1.30;;;;;;;5.59;72.19;101395.86;111273;1266;23011;-77
2024/01/27 11:48:16;;;;;;;11.20;0.90;;;;;;;5.64;72.06;101406.87;111155;1265;23431;-77
2024/01/27 11:51:11;;;;;;;9.80;0.90;;;;;;;5.69;71.69;101405.45;111114;1266;22307;-76
2024/01/27 11:54:02;;;;;;;13.50;1.30;;;;;;;5.76;71.96;101398.15;111122;1264;22477;-79
2024/01/27 11:56:55;;;;;;;16.70;1.30;;;;;;;5.82;71.42;101395.85;111142;1268;22941;-77
2024/01/27 11:59:45;;;;;;;12.80;1.30;;;;;;;5.86;71.26;101399.92;111211;1264;23270;-77
2024/01/27 12:02:37;;;;;;;16.60;1.20;;;;;;;5.88;70.82;101403.92;111150;1269;22116;-78
2024/01/27 12:05:27;;;;;;;12.50;1.50;;;;;;;5.89;71.28;101410.58;110020;1269;22631;-76
2024/01/27 12:08:20;;;;;;;17.30;1.80;;;;;;;5.89;70.87;101414.06;108228;1262;23168;-77
2024/01/27 12:11:11;;;;;;;15.70;1.50;;;;;;;5.89;70.54;101407.26;108361;1269;22589;-77
2024/01/27 12:14:02;;;;;;;11.80;0.90;;;;;;;5.89;70.80;101416.13;107996;1269;24044;-75
2024/01/27 12:16:54;;;;;;;8.00;1.10;;;;;;;5.92;70.69;101425.34;108016;1269;22646;-76
2024/01/27 12:19:51;;;;;;;18.40;1.30;;;;;;;5.92;70.98;101423.77;108019;1269;22576;-77
2024/01/27 12:22:43;;;;;;;16.80;1.80;;;;;;;5.94;70.96;101433.24;108137;1265;22968;-78
2024/01/27 12:25:34;;;;;;;21.70;1.80;;;;;;;5.96;71.29;101437.23;108154;1269;25319;-79
2024/01/27 12:28:28;;;;;;;15.90;1.60;;;;;;;6.02;71.49;101438.73;108065;1264;22650;-79
2024/01/27 12:31:22;;;;;;;12.50;1.70;;;;;;;6.10;70.87;101450.73;110992;1266;22183;-78
2024/01/27 12:34:41;;;;;;;10.20;1.10;;;;;;;6.16;70.59;101459.34;109557;1264;23279;-78
2024/01/27 12:37:33;;;;;;;11.20;1.80;;;;;;;6.17;70.23;101462.25;108131;1266;25186;-77
2024/01/27 12:40:24;;;;;;;21.00;1.80;;;;;;;6.17;70.16;101456.70;108167;1269;25387;-77
2024/01/27 12:43:15;;;;;;;15.70;1.90;;;;;;;6.18;69.74;101467.23;107943;1268;22576;-77
2024/01/27 12:46:06;;;;;;;10.90;1.30;;;;;;;6.18;69.50;101466.69;107992;1262;25329;-76
2024/01/27 12:48:57;;;;;;;12.00;1.20;;;;;;;6.18;69.13;101473.97;108206;1263;22995;-77
2024/01/27 12:51:48;;;;;;;15.50;1.30;;;;;;;6.17;68.96;101491.73;108175;1255;22660;-76
2024/01/27 12:54:39;;;;;;;16.00;1.10;;;;;;;6.14;68.93;101491.69;107881;1263;23058;-77
2024/01/27 12:57:30;;;;;;;15.50;1.90;;;;;;;6.14;68.64;101499.08;108182;1263;22550;-79
2024/01/27 13:00:22;;;;;;;18.60;1.40;;;;;;;6.16;69.39;101488.26;108103;1269;24237;-77
2024/01/27 13:03:13;;;;;;;15.70;1.90;;;;;;;6.17;68.50;101488.87;108019;1268;25465;-77
2024/01/27 13:06:05;;;;;;;18.30;1.20;;;;;;;6.16;68.30;101494.75;108000;1262;22546;-77
2024/01/27 13:08:56;;;;;;;11.60;1.30;;;;;;;6.15;69.04;101490.48;108151;1266;22537;-79
2024/01/27 13:11:47;;;;;;;10.80;1.00;;;;;;;6.16;69.12;101483.44;108169;1262;24314;-79
2024/01/27 13:14:38;;;;;;;14.40;1.60;;;;;;;6.17;68.70;101497.20;108079;1268;22993;-78
2024/01/27 13:17:29;;;;;;;15.60;1.90;;;;;;;6.19;69.19;101489.25;108201;1269;22928;-79
2024/01/27 13:20:20;;;;;;;15.00;1.70;;;;;;;6.22;69.38;101497.13;108118;1263;23050;-77
2024/01/27 13:23:11;;;;;;;17.80;1.90;;;;;;;6.23;69.05;101501.86;108332;1264;24425;-76
2024/01/27 13:26:02;;;;;;;11.70;1.50;;;;;;;6.25;69.37;101504.36;107902;1263;22540;-78
2024/01/27 13:28:52;;;;;;;14.50;2.40;;;;;;;6.27;69.49;101501.48;108049;1264;24062;-77
2024/01/27 13:31:43;;;;;;;15.50;1.30;;;;;;;6.27;69.34;101515.66;108322;1266;25315;-79
2024/01/27 13:34:32;;;;;;;;;;;;;;;6.27;69.00;101528.44;108119;1266;22626;-76
2024/01/27 13:37:25;;;;;;;10.70;1.20;;;;;;;6.24;69.39;101520.68;107943;1269;22679;-76
2024/01/27 13:40:16;;;;;;;14.00;1.50;;;;;;;6.24;69.53;101521.48;108057;1256;22528;-77
2024/01/27 13:43:06;;;;;;;12.50;1.10;;;;;;;6.24;69.43;101523.14;108230;1266;22559;-76
2024/01/27 13:45:57;;;;;;;12.10;1.00;;;;;;;6.24;69.47;101526.88;107974;1266;23941;-76